createdAt,value
2018-06-05T00:01:55.454Z,18.70
2018-06-05T00:04:24.307Z,18.68
2018-06-05T00:06:53.138Z,18.66
2018-06-05T00:09:21.987Z,18.65
2018-06-05T00:11:50.842Z,18.64
2018-06-05T00:14:19.664Z,18.65
2018-06-05T00:16:48.567Z,18.63
2018-06-05T00:19:17.416Z,18.62
2018-06-05T00:21:46.257Z,18.61
2018-06-05T00:24:15.142Z,18.59
2018-06-05T00:26:44.015Z,18.62
2018-06-05T00:29:12.886Z,18.47
2018-06-05T00:31:41.719Z,18.47
2018-06-05T00:34:10.597Z,18.44
2018-06-05T00:36:39.514Z,18.44
2018-06-05T00:39:08.375Z,18.67
2018-06-05T00:41:37.192Z,18.51
2018-06-05T00:44:06.055Z,18.73
2018-06-05T00:46:34.866Z,18.58
2018-06-05T00:49:03.738Z,18.61
2018-06-05T00:52:09.543Z,18.58
2018-06-05T00:54:38.404Z,18.48
2018-06-05T00:57:07.262Z,18.44
2018-06-05T00:59:36.161Z,18.43
2018-06-05T01:02:05.032Z,18.43
2018-06-05T01:04:33.856Z,18.68
2018-06-05T01:07:02.737Z,18.50
2018-06-05T01:09:31.567Z,18.46
2018-06-05T01:12:00.424Z,18.47
2018-06-05T01:14:29.278Z,18.50
2018-06-05T01:16:58.121Z,18.76
2018-06-05T01:19:26.956Z,18.59
2018-06-05T01:21:55.810Z,18.54
2018-06-05T01:24:24.676Z,18.53
2018-06-05T01:26:53.548Z,18.44
2018-06-05T01:29:22.362Z,18.41
2018-06-05T01:31:51.215Z,18.41
2018-06-05T01:34:20.059Z,18.65
2018-06-05T01:36:48.910Z,18.46
2018-06-05T01:39:17.794Z,18.46
2018-06-05T01:41:46.626Z,18.45
2018-06-05T01:44:15.490Z,18.43
2018-06-05T01:46:44.405Z,18.40
2018-06-05T01:49:13.257Z,18.32
2018-06-05T01:51:42.094Z,18.27
2018-06-05T01:54:10.945Z,18.27
2018-06-05T01:56:39.794Z,18.24
2018-06-05T01:59:08.638Z,18.23
2018-06-05T02:01:39.003Z,18.20
2018-06-05T02:04:07.869Z,18.44
2018-06-05T02:06:36.716Z,18.29
2018-06-05T02:09:06.469Z,18.29
2018-06-05T02:11:35.316Z,18.21
2018-06-05T02:14:04.153Z,18.11
2018-06-05T02:16:33.034Z,18.03
2018-06-05T02:19:01.887Z,18.01
2018-06-05T02:21:30.730Z,18.03
2018-06-05T02:23:59.573Z,17.98
2018-06-05T02:26:28.426Z,17.92
2018-06-05T02:28:57.261Z,17.88
2018-06-05T02:31:26.099Z,17.85
2018-06-05T02:33:54.976Z,17.85
2018-06-05T02:36:23.833Z,17.88
2018-06-05T02:38:52.661Z,17.92
2018-06-05T02:41:21.527Z,17.91
2018-06-05T02:43:50.389Z,17.87
2018-06-05T02:46:19.267Z,17.87
2018-06-05T02:48:48.095Z,17.86
2018-06-05T02:51:16.972Z,17.83
2018-06-05T02:53:45.821Z,17.84
2018-06-05T02:56:14.670Z,17.82
2018-06-05T02:58:43.513Z,17.77
2018-06-05T03:01:12.332Z,18.01
2018-06-05T03:03:41.143Z,17.89
2018-06-05T03:06:09.989Z,17.89
2018-06-05T03:08:38.812Z,17.92
2018-06-05T03:11:07.645Z,17.92
2018-06-05T03:13:36.505Z,18.11
2018-06-05T03:16:05.341Z,17.93
2018-06-05T03:18:34.194Z,17.95
2018-06-05T03:21:03.053Z,17.92
2018-06-05T03:23:31.894Z,17.92
2018-06-05T03:26:00.759Z,17.92
2018-06-05T03:28:29.581Z,17.86
2018-06-05T03:30:58.441Z,17.89
2018-06-05T03:33:27.252Z,17.90
2018-06-05T03:35:56.101Z,17.91
2018-06-05T03:38:24.970Z,17.91
2018-06-05T03:40:53.847Z,17.90
2018-06-05T03:43:22.668Z,17.89
2018-06-05T03:45:51.525Z,17.89
2018-06-05T03:48:20.354Z,17.89
2018-06-05T03:50:49.157Z,17.88
2018-06-05T03:53:17.980Z,17.83
2018-06-05T03:55:46.813Z,17.85
2018-06-05T03:58:15.672Z,17.83
2018-06-05T04:00:44.507Z,17.83
2018-06-05T04:03:13.399Z,17.85
2018-06-05T04:05:42.207Z,17.87
2018-06-05T04:08:11.065Z,17.91
2018-06-05T04:10:39.905Z,17.93
2018-06-05T04:13:08.755Z,17.93
2018-06-05T04:15:37.568Z,17.94
2018-06-05T04:18:06.459Z,17.93
2018-06-05T04:20:35.342Z,17.91
2018-06-05T04:23:04.188Z,17.92
2018-06-05T04:25:33.021Z,17.97
2018-06-05T04:28:01.907Z,18.01
2018-06-05T04:30:30.766Z,18.01
2018-06-05T04:32:59.596Z,18.05
2018-06-05T04:35:28.667Z,18.05
2018-06-05T04:37:57.662Z,18.03
2018-06-05T04:40:26.681Z,18.04
2018-06-05T04:42:55.546Z,17.99
2018-06-05T04:45:24.359Z,17.99
2018-06-05T04:47:53.221Z,18.01
2018-06-05T04:50:22.139Z,18.08
2018-06-05T04:52:51.017Z,18.26
2018-06-05T04:55:19.888Z,18.12
2018-06-05T04:57:48.710Z,18.08
2018-06-05T05:00:17.612Z,18.11
2018-06-05T05:02:46.486Z,18.13
2018-06-05T05:05:15.348Z,18.13
2018-06-05T05:07:44.359Z,18.15
2018-06-05T05:10:13.201Z,18.38
2018-06-05T05:12:42.024Z,18.21
2018-06-05T05:15:10.862Z,18.21
2018-06-05T05:17:39.682Z,18.20
2018-06-05T05:20:08.510Z,18.17
2018-06-05T05:22:37.344Z,18.15
2018-06-05T05:25:06.207Z,18.20
2018-06-05T05:27:35.069Z,18.17
2018-06-05T05:30:03.921Z,18.07
2018-06-05T05:32:32.852Z,18.10
2018-06-05T05:35:01.637Z,17.96
2018-06-05T05:37:30.517Z,18.02
2018-06-05T05:39:59.350Z,18.04
2018-06-05T05:42:28.210Z,18.02
2018-06-05T05:44:57.104Z,18.03
2018-06-05T05:47:25.902Z,18.01
2018-06-05T05:49:54.807Z,17.98
2018-06-05T05:52:23.671Z,17.99
2018-06-05T05:54:52.614Z,18.01
2018-06-05T05:57:21.450Z,18.01
2018-06-05T05:59:50.304Z,17.99
2018-06-05T06:02:19.136Z,17.99
2018-06-05T06:04:47.973Z,18.03
2018-06-05T06:07:16.828Z,18.00
2018-06-05T06:09:47.240Z,18.06
2018-06-05T06:12:16.104Z,18.08
2018-06-05T06:14:44.962Z,18.10
2018-06-05T06:17:13.795Z,18.11
2018-06-05T06:19:42.639Z,18.12
2018-06-05T06:22:11.490Z,18.14
2018-06-05T06:24:40.368Z,18.16
2018-06-05T06:27:09.184Z,18.17
2018-06-05T06:29:38.051Z,18.38
2018-06-05T06:32:07.036Z,18.24
2018-06-05T06:34:35.877Z,18.25
2018-06-05T06:37:04.735Z,18.25
2018-06-05T06:39:33.609Z,18.31
2018-06-05T06:42:02.458Z,18.55
2018-06-05T06:44:31.326Z,18.43
2018-06-05T06:47:00.188Z,18.48
2018-06-05T06:49:29.119Z,18.49
2018-06-05T06:51:57.962Z,18.48
2018-06-05T06:54:27.269Z,18.49
2018-06-05T06:56:58.939Z,18.46
2018-06-05T06:59:28.103Z,18.62
2018-06-05T07:01:57.600Z,18.49
2018-06-05T07:04:26.935Z,18.45
2018-06-05T07:06:56.108Z,18.47
2018-06-05T07:09:25.158Z,18.65
2018-06-05T07:11:59.558Z,18.69
2018-06-05T07:14:31.690Z,18.74
2018-06-05T07:17:04.024Z,18.59
2018-06-05T07:19:33.033Z,18.57
2018-06-05T07:22:07.776Z,18.57
2018-06-05T07:24:38.330Z,18.55
2018-06-05T07:27:07.336Z,18.50
2018-06-05T07:29:40.880Z,18.73
2018-06-05T07:32:14.533Z,18.59
2018-06-05T07:34:46.762Z,18.57
2018-06-05T07:37:15.884Z,18.57
2018-06-05T07:39:50.452Z,18.51
2018-06-05T07:42:19.549Z,18.49
2018-06-05T07:44:50.333Z,18.46
2018-06-05T07:47:19.733Z,18.50
2018-06-05T07:49:49.244Z,18.54
2018-06-05T07:52:20.895Z,18.48
2018-06-05T07:54:50.259Z,18.65
2018-06-05T07:57:19.798Z,18.82
2018-06-05T07:59:49.077Z,18.76
2018-06-05T08:02:18.437Z,18.91
2018-06-05T08:04:47.912Z,18.80
2018-06-05T08:07:17.021Z,18.76
2018-06-05T08:09:51.517Z,18.63
2018-06-05T08:12:26.194Z,18.61
2018-06-05T08:14:57.979Z,18.68
2018-06-05T08:17:29.603Z,18.70
2018-06-05T08:19:56.265Z,18.74
2018-06-05T08:22:29.224Z,18.76
2018-06-05T08:24:58.323Z,18.81
2018-06-05T08:27:27.554Z,18.87
2018-06-05T08:30:02.959Z,18.88
2018-06-05T08:32:31.468Z,18.83
2018-06-05T08:35:02.956Z,18.77
2018-06-05T08:37:32.062Z,18.73
2018-06-05T08:40:01.049Z,18.75
2018-06-05T08:42:33.119Z,18.83
2018-06-05T08:45:02.239Z,18.87
2018-06-05T08:47:31.527Z,18.85
2018-06-05T08:50:03.718Z,18.86
2018-06-05T08:52:32.837Z,19.02
2018-06-05T08:55:05.119Z,18.86
2018-06-05T08:57:34.332Z,18.84
2018-06-05T09:00:05.772Z,18.89
2018-06-05T09:02:38.225Z,18.90
2018-06-05T09:05:07.344Z,19.08
2018-06-05T09:07:36.224Z,19.02
2018-06-05T09:10:05.235Z,18.95
2018-06-05T09:12:34.104Z,18.96
2018-06-05T09:15:04.162Z,19.03
2018-06-05T09:17:32.920Z,19.09
2018-06-05T09:20:01.774Z,19.09
2018-06-05T09:22:30.622Z,19.12
2018-06-05T09:24:59.487Z,19.11
2018-06-05T09:27:28.545Z,19.09
2018-06-05T09:29:57.559Z,19.08
2018-06-05T09:32:29.330Z,19.24
2018-06-05T09:34:58.283Z,19.30
2018-06-05T09:37:27.161Z,19.37
2018-06-05T09:39:56.003Z,19.40
2018-06-05T09:42:24.868Z,19.46
2018-06-05T09:44:53.713Z,19.43
2018-06-05T09:47:22.997Z,19.47
2018-06-05T09:49:51.863Z,19.53
2018-06-05T09:52:20.808Z,19.63
2018-06-05T09:54:49.657Z,19.76
2018-06-05T09:57:18.535Z,19.82
2018-06-05T09:59:47.428Z,19.90
2018-06-05T10:02:16.301Z,19.99
2018-06-05T10:04:45.162Z,19.99
2018-06-05T10:07:14.014Z,19.82
2018-06-05T10:09:42.877Z,19.81
2018-06-05T10:12:11.756Z,19.79
2018-06-05T10:14:40.672Z,19.70
2018-06-05T10:17:12.442Z,19.56
2018-06-05T10:19:41.315Z,19.63
2018-06-05T10:22:10.201Z,19.74
2018-06-05T10:24:39.045Z,19.77
2018-06-05T10:27:07.937Z,19.79
2018-06-05T10:29:36.796Z,19.67
2018-06-05T10:32:05.787Z,19.80
2018-06-05T10:34:34.677Z,19.96
2018-06-05T10:37:03.657Z,20.02
2018-06-05T10:39:33.700Z,20.09
2018-06-05T10:42:02.540Z,20.16
2018-06-05T10:44:31.568Z,20.19
2018-06-05T10:47:00.656Z,20.21
2018-06-05T10:49:29.518Z,20.37
2018-06-05T10:51:58.427Z,20.45
2018-06-05T10:54:27.313Z,20.48
2018-06-05T10:56:56.234Z,20.57
2018-06-05T10:59:25.104Z,20.69
2018-06-05T11:01:53.979Z,20.73
2018-06-05T11:04:23.131Z,20.78
2018-06-05T11:06:51.996Z,20.81
2018-06-05T11:09:20.880Z,20.83
2018-06-05T11:11:49.761Z,20.87
2018-06-05T11:14:18.604Z,20.85
2018-06-05T11:16:47.440Z,21.04
2018-06-05T11:19:16.305Z,21.18
2018-06-05T11:21:45.206Z,21.27
2018-06-05T11:24:14.240Z,21.51
2018-06-05T11:26:43.101Z,21.77
2018-06-05T11:29:12.047Z,22.13
2018-06-05T11:31:40.893Z,22.33
2018-06-05T11:34:10.081Z,22.39
2018-06-05T11:36:39.124Z,22.57
2018-06-05T11:39:08.664Z,22.85
2018-06-05T11:41:37.878Z,23.16
2018-06-05T11:44:06.877Z,23.34
2018-06-05T11:46:36.118Z,23.25
2018-06-05T11:49:05.209Z,24.07
2018-06-05T11:51:34.244Z,25.33
2018-06-05T11:54:03.247Z,26.12
2018-06-05T11:56:32.093Z,26.63
2018-06-05T11:59:01.052Z,26.43
2018-06-05T12:01:29.898Z,26.58
2018-06-05T12:03:58.720Z,26.41
2018-06-05T12:06:27.581Z,26.25
2018-06-05T12:08:56.440Z,26.33
2018-06-05T12:11:25.338Z,26.28
2018-06-05T12:13:54.162Z,26.12
2018-06-05T12:16:23.028Z,25.73
2018-06-05T12:18:51.842Z,25.38
2018-06-05T12:21:20.673Z,25.21
2018-06-05T12:23:49.553Z,24.86
2018-06-05T12:26:18.400Z,24.67
2018-06-05T12:28:47.275Z,24.79
2018-06-05T12:31:16.143Z,24.86
2018-06-05T12:33:44.970Z,24.79
2018-06-05T12:36:13.861Z,25.02
2018-06-05T12:38:42.759Z,24.92
2018-06-05T12:41:11.637Z,25.05
2018-06-05T12:43:40.504Z,25.14
2018-06-05T12:46:09.328Z,25.26
2018-06-05T12:48:38.160Z,25.12
2018-06-05T12:51:07.002Z,25.03
2018-06-05T12:53:35.874Z,24.95
2018-06-05T12:56:04.779Z,24.90
2018-06-05T12:58:33.620Z,24.85
2018-06-05T13:01:02.465Z,24.82
2018-06-05T13:03:31.308Z,24.69
2018-06-05T13:06:00.118Z,24.60
2018-06-05T13:08:28.983Z,24.63
2018-06-05T13:10:57.836Z,24.74
2018-06-05T13:13:26.948Z,24.85
2018-06-05T13:15:55.797Z,25.05
2018-06-05T13:18:24.643Z,25.13
2018-06-05T13:20:53.496Z,25.07
2018-06-05T13:23:22.333Z,24.99
2018-06-05T13:25:51.159Z,24.96
2018-06-05T13:28:20.009Z,24.94
2018-06-05T13:30:48.864Z,24.86
2018-06-05T13:33:17.747Z,24.83
2018-06-05T13:35:46.677Z,25.00
2018-06-05T13:38:18.596Z,25.06
2018-06-05T13:40:47.470Z,25.03
2018-06-05T13:43:16.318Z,25.06
2018-06-05T13:45:45.173Z,24.97
2018-06-05T13:48:14.027Z,25.00
2018-06-05T13:50:42.857Z,24.86
2018-06-05T13:53:11.717Z,24.92
2018-06-05T13:55:40.631Z,25.08
2018-06-05T13:58:09.502Z,25.07
2018-06-05T14:00:41.349Z,24.87
2018-06-05T14:03:10.307Z,24.82
2018-06-05T14:05:39.131Z,24.86
2018-06-05T14:08:08.005Z,24.92
2018-06-05T14:10:36.850Z,24.72
2018-06-05T14:13:05.709Z,24.87
2018-06-05T14:15:34.553Z,24.97
2018-06-05T14:18:03.455Z,24.88
2018-06-05T14:20:32.298Z,24.87
2018-06-05T14:23:04.977Z,24.94
2018-06-05T14:25:33.817Z,25.00
2018-06-05T14:28:02.660Z,24.99
2018-06-05T14:30:31.498Z,24.99
2018-06-05T14:33:00.400Z,24.95
2018-06-05T14:35:29.239Z,24.90
2018-06-05T14:37:58.089Z,24.90
2018-06-05T14:40:26.935Z,24.99
2018-06-05T14:42:55.810Z,24.94
2018-06-05T14:45:32.092Z,24.91
2018-06-05T14:48:00.863Z,24.86
2018-06-05T14:50:29.744Z,24.94
2018-06-05T14:52:58.517Z,24.98
2018-06-05T14:55:27.387Z,24.95
2018-06-05T14:57:56.340Z,24.94
2018-06-05T15:00:25.277Z,24.95
2018-06-05T15:02:54.078Z,24.89
2018-06-05T15:05:22.926Z,24.86
2018-06-05T15:07:51.789Z,24.96
2018-06-05T15:10:20.652Z,24.97
2018-06-05T15:12:49.528Z,24.92
2018-06-05T15:15:18.431Z,24.87
2018-06-05T15:17:47.298Z,24.80
2018-06-05T15:20:16.146Z,24.75
2018-06-05T15:22:44.961Z,24.76
2018-06-05T15:25:13.873Z,24.80
2018-06-05T15:27:42.658Z,24.77
2018-06-05T15:30:17.720Z,24.66
2018-06-05T15:32:46.554Z,24.64
2018-06-05T15:35:15.466Z,24.65
2018-06-05T15:37:44.393Z,24.68
2018-06-05T15:40:13.272Z,24.66
2018-06-05T15:42:42.145Z,24.62
2018-06-05T15:45:11.005Z,24.59
2018-06-05T15:47:39.875Z,24.58
2018-06-05T15:50:08.705Z,24.61
2018-06-05T15:52:37.552Z,24.61
2018-06-05T15:55:06.446Z,24.62
2018-06-05T15:57:35.297Z,24.61
2018-06-05T16:00:04.183Z,24.56
2018-06-05T16:02:33.041Z,24.53
2018-06-05T16:05:01.908Z,24.52
2018-06-05T16:07:30.749Z,24.47
2018-06-05T16:09:59.756Z,24.55
2018-06-05T16:12:28.574Z,24.51
2018-06-05T16:14:57.499Z,24.53
2018-06-05T16:17:26.420Z,24.53
2018-06-05T16:19:55.281Z,24.53
2018-06-05T16:22:24.148Z,24.48
2018-06-05T16:24:53.009Z,24.46
2018-06-05T16:27:21.883Z,24.46
2018-06-05T16:29:50.738Z,24.43
2018-06-05T16:32:19.619Z,24.41
2018-06-05T16:34:48.501Z,24.28
2018-06-05T16:37:17.389Z,24.11
2018-06-05T16:39:46.251Z,24.14
2018-06-05T16:42:15.084Z,24.16
2018-06-05T16:44:43.970Z,24.11
2018-06-05T16:47:12.869Z,24.06
2018-06-05T16:49:41.808Z,24.04
2018-06-05T16:52:10.659Z,24.04
2018-06-05T16:54:39.517Z,24.04
2018-06-05T16:57:08.542Z,23.96
2018-06-05T16:59:37.371Z,23.96
2018-06-05T17:02:06.216Z,23.92
2018-06-05T17:04:35.168Z,23.90
2018-06-05T17:07:03.990Z,23.88
2018-06-05T17:09:32.845Z,23.83
2018-06-05T17:12:01.684Z,23.75
2018-06-05T17:14:30.557Z,23.71
2018-06-05T17:16:59.440Z,23.63
2018-06-05T17:19:31.312Z,23.67
2018-06-05T17:22:00.196Z,23.73
2018-06-05T17:24:29.037Z,23.63
2018-06-05T17:26:57.895Z,23.62
2018-06-05T17:29:26.790Z,23.57
2018-06-05T17:31:55.654Z,23.52
2018-06-05T17:34:24.547Z,23.46
2018-06-05T17:36:53.471Z,23.44
2018-06-05T17:39:22.323Z,23.46
2018-06-05T17:41:51.217Z,23.37
2018-06-05T17:44:20.107Z,23.30
2018-06-05T17:46:49.003Z,23.27
2018-06-05T17:49:18.094Z,23.22
2018-06-05T17:51:46.885Z,23.16
2018-06-05T17:54:15.784Z,23.15
2018-06-05T17:56:44.899Z,23.10
2018-06-05T17:59:13.808Z,23.09
2018-06-05T18:01:42.751Z,23.05
2018-06-05T18:04:11.635Z,22.99
2018-06-05T18:06:40.529Z,22.97
2018-06-05T18:09:09.398Z,22.90
2018-06-05T18:11:38.311Z,22.83
2018-06-05T18:14:07.192Z,22.77
2018-06-05T18:16:36.087Z,22.75
2018-06-05T18:19:04.979Z,22.79
2018-06-05T18:21:33.826Z,22.65
2018-06-05T18:24:02.725Z,22.58
2018-06-05T18:26:31.709Z,22.47
2018-06-05T18:29:00.544Z,22.39
2018-06-05T18:31:29.407Z,22.33
2018-06-05T18:33:58.339Z,22.29
2018-06-05T18:36:27.213Z,22.25
2018-06-05T18:38:56.065Z,22.35
2018-06-05T18:41:24.992Z,22.18
2018-06-05T18:43:53.897Z,22.11
2018-06-05T18:46:22.871Z,22.02
2018-06-05T18:48:55.228Z,22.13
2018-06-05T18:51:24.082Z,21.96
2018-06-05T18:53:52.941Z,21.90
2018-06-05T18:56:21.815Z,21.79
2018-06-05T18:58:50.673Z,21.69
2018-06-05T19:01:19.528Z,21.66
2018-06-05T19:03:48.386Z,21.57
2018-06-05T19:06:17.278Z,21.51
2018-06-05T19:08:46.140Z,21.44
2018-06-05T19:11:15.072Z,21.30
2018-06-05T19:13:44.463Z,21.20
2018-06-05T19:16:13.467Z,21.13
2018-06-05T19:18:44.553Z,21.04
2018-06-05T19:21:13.619Z,20.95
2018-06-05T19:23:42.981Z,20.88
2018-06-05T19:26:12.063Z,20.83
2018-06-05T19:28:41.238Z,20.75
2018-06-05T19:31:10.411Z,20.67
2018-06-05T19:33:41.335Z,20.67
2018-06-05T19:36:10.536Z,20.74
2018-06-05T19:38:41.638Z,20.54
2018-06-05T19:41:10.904Z,20.49
2018-06-05T19:43:39.951Z,20.44
2018-06-05T19:46:08.940Z,20.34
2018-06-05T19:48:38.037Z,20.25
2018-06-05T19:51:06.883Z,20.16
2018-06-05T19:53:35.861Z,20.10
2018-06-05T19:56:04.751Z,19.99
2018-06-05T19:58:33.644Z,19.92
2018-06-05T20:01:02.645Z,19.83
2018-06-05T20:03:31.570Z,19.71
2018-06-05T20:06:00.418Z,19.65
2018-06-05T20:08:29.258Z,19.59
2018-06-05T20:10:58.128Z,19.72
2018-06-05T20:13:30.085Z,19.50
2018-06-05T20:15:59.078Z,19.42
2018-06-05T20:18:28.075Z,19.35
2018-06-05T20:20:56.958Z,19.29
2018-06-05T20:23:25.849Z,19.25
2018-06-05T20:25:54.770Z,19.22
2018-06-05T20:28:23.970Z,19.12
2018-06-05T20:30:52.901Z,19.10
2018-06-05T20:33:21.827Z,19.03
2018-06-05T20:35:50.830Z,18.89
2018-06-05T20:38:19.731Z,18.82
2018-06-05T20:40:48.610Z,18.72
2018-06-05T20:43:17.507Z,18.63
2018-06-05T20:45:46.463Z,18.59
2018-06-05T20:48:15.386Z,18.54
2018-06-05T20:50:44.383Z,18.54
2018-06-05T20:53:13.219Z,18.54
2018-06-05T20:55:42.072Z,18.49
2018-06-05T20:58:10.951Z,18.45
2018-06-05T21:00:39.895Z,18.38
2018-06-05T21:03:08.738Z,18.39
2018-06-05T21:05:37.598Z,18.38
2018-06-05T21:08:06.573Z,18.43
2018-06-05T21:10:35.516Z,18.31
2018-06-05T21:13:04.409Z,18.23
2018-06-05T21:15:35.151Z,18.13
2018-06-05T21:18:04.030Z,18.06
2018-06-05T21:20:32.885Z,18.00
2018-06-05T21:23:01.776Z,17.93
2018-06-05T21:25:30.670Z,17.88
2018-06-05T21:27:59.556Z,17.82
2018-06-05T21:30:28.466Z,17.79
2018-06-05T21:32:57.384Z,17.76
2018-06-05T21:35:26.156Z,17.75
2018-06-05T21:37:55.072Z,17.60
2018-06-05T21:40:24.010Z,17.53
2018-06-05T21:42:53.036Z,17.49
2018-06-05T21:45:21.985Z,17.46
2018-06-05T21:47:50.803Z,17.49
2018-06-05T21:50:19.757Z,17.56
2018-06-05T21:52:48.644Z,17.56
2018-06-05T21:55:17.550Z,17.58
2018-06-05T21:57:46.486Z,17.48
2018-06-05T22:00:17.489Z,17.39
2018-06-05T22:02:46.423Z,17.33
2018-06-05T22:05:15.373Z,17.23
2018-06-05T22:07:44.433Z,17.23
2018-06-05T22:10:13.390Z,17.21
2018-06-05T22:12:42.237Z,17.11
2018-06-05T22:15:11.164Z,17.14
2018-06-05T22:17:40.064Z,17.12
2018-06-05T22:20:08.941Z,17.10
2018-06-05T22:22:37.850Z,17.10
2018-06-05T22:25:06.729Z,17.07
2018-06-05T22:27:35.816Z,17.06
2018-06-05T22:30:04.618Z,17.03
2018-06-05T22:32:33.518Z,17.07
2018-06-05T22:35:02.376Z,17.03
2018-06-05T22:37:31.484Z,17.03
2018-06-05T22:40:00.358Z,17.14
2018-06-05T22:42:29.261Z,16.96
2018-06-05T22:44:58.171Z,16.97
2018-06-05T22:47:27.064Z,16.95
2018-06-05T22:49:55.933Z,16.95
2018-06-05T22:52:24.814Z,16.88
2018-06-05T22:54:53.703Z,16.87
2018-06-05T22:57:22.601Z,16.86
2018-06-05T22:59:51.472Z,16.81
2018-06-05T23:02:20.373Z,16.80
2018-06-05T23:04:49.202Z,16.73
2018-06-05T23:07:18.073Z,16.69
2018-06-05T23:09:46.985Z,16.68
2018-06-05T23:12:15.867Z,16.69
2018-06-05T23:14:44.762Z,16.66
2018-06-05T23:17:13.652Z,16.65
2018-06-05T23:19:42.509Z,16.65
2018-06-05T23:22:11.438Z,16.64
2018-06-05T23:24:40.294Z,16.63
2018-06-05T23:27:09.179Z,16.68
2018-06-05T23:29:38.075Z,16.64
2018-06-05T23:32:07.261Z,16.61
2018-06-05T23:34:36.138Z,16.81
2018-06-05T23:37:05.024Z,16.65
2018-06-05T23:39:33.911Z,16.64
2018-06-05T23:42:02.774Z,16.60
2018-06-05T23:44:31.666Z,16.56
2018-06-05T23:47:00.569Z,16.51
2018-06-05T23:49:29.449Z,16.45
2018-06-05T23:52:01.066Z,16.44
2018-06-05T23:54:29.947Z,16.37
2018-06-05T23:56:58.850Z,16.32
2018-06-05T23:59:27.732Z,16.37
